Time;durP1;ratioP1;P1;durP2;ratioP2;P2;SDS_P1;SDS_P2;PMS_P1;PMS_P2;Temp;Humidity;BMP_temperature;BMP_pressure;BME280_temperature;BME280_humidity;BME280_pressure;Samples;Min_cycle;Max_cycle;Signal;HPM_P1;HPM_P2
2022/11/20 00:01:37;;;;;;;;;7.00;5.75;;;;;9.07;69.27;101184.81;5077755;28;71113;-81
2022/11/20 00:04:03;;;;;;;;;9.75;7.00;;;;;9.06;69.08;101184.84;5077477;28;56834;-82
2022/11/20 00:06:29;;;;;;;;;6.00;6.00;;;;;9.03;69.11;101188.34;5078500;27;45501;-81
2022/11/20 00:08:56;;;;;;;;;7.25;5.50;;;;;8.98;69.00;101187.56;5060394;28;45641;-82
2022/11/20 00:11:23;;;;;;;;;6.25;6.00;;;;;8.97;69.38;101185.88;5078551;28;46538;-82
2022/11/20 00:13:51;;;;;;;;;8.25;6.00;;;;;8.94;69.25;101187.66;5078528;27;45286;-82
2022/11/20 00:16:18;;;;;;;;;7.25;5.00;;;;;8.90;69.01;101179.03;5060392;28;45352;-82
2022/11/20 00:18:44;;;;;;;;;8.50;6.25;;;;;8.89;69.39;101183.34;5059794;28;45668;-82
2022/11/20 00:21:15;;;;;;;;;7.50;6.00;;;;;8.90;69.43;101184.25;5077883;28;45366;-82
2022/11/20 00:23:41;;;;;;;;;12.75;9.00;;;;;8.90;69.28;101186.84;5060213;28;45732;-82
2022/11/20 00:26:12;;;;;;;;;10.75;7.25;;;;;8.85;69.18;101186.88;5078301;27;45360;-81
2022/11/20 00:28:37;;;;;;;;;8.50;7.25;;;;;8.82;69.77;101180.88;5076024;28;45404;-81
2022/11/20 00:31:05;;;;;;;;;6.50;6.00;;;;;8.76;69.46;101187.00;5077301;28;57604;-81
2022/11/20 00:33:30;;;;;;;;;8.00;6.25;;;;;8.74;69.34;101187.94;5078114;28;45246;-81
2022/11/20 00:36:04;;;;;;;;;6.75;5.25;;;;;8.72;69.56;101188.78;5078256;27;45273;-82
2022/11/20 00:38:30;;;;;;;;;5.25;5.00;;;;;8.72;69.96;101194.00;5071542;28;45409;-82
2022/11/20 00:41:00;;;;;;;;;6.75;5.00;;;;;8.72;70.11;101190.53;5048744;28;45487;-81
2022/11/20 00:43:26;;;;;;;;;11.50;7.25;;;;;8.69;69.74;101195.75;5059897;28;45543;-82
2022/11/20 00:45:59;;;;;;;;;6.25;2.00;;;;;8.62;69.58;101199.34;5077823;28;45648;-82
2022/11/20 00:48:24;;;;;;;;;13.00;8.25;;;;;8.55;69.85;101193.38;5059539;28;45426;-82
2022/11/20 00:50:50;;;;;;;;;6.00;6.00;;;;;8.52;69.80;101204.66;5077808;28;46064;-82
2022/11/20 00:53:15;;;;;;;;;8.25;6.00;;;;;8.51;69.73;101209.88;5077847;27;45439;-81
2022/11/20 00:55:40;;;;;;;;;9.25;2.00;;;;;8.49;69.91;101198.66;5076734;28;63640;-82
2022/11/20 00:58:06;;;;;;;;;8.00;8.00;;;;;8.48;70.16;101195.19;5077187;28;60408;-82
2022/11/20 01:00:31;;;;;;;;;7.50;7.50;;;;;8.45;69.90;101191.75;5057989;28;73433;-82
2022/11/20 01:02:56;;;;;;;;;12.50;7.25;;;;;8.42;69.64;101205.63;5076740;28;62733;-82
2022/11/20 01:05:22;;;;;;;;;5.50;4.75;;;;;8.36;69.60;101202.22;5058863;28;65486;-81
2022/11/20 01:07:47;;;;;;;;;5.50;5.50;;;;;8.31;69.98;101197.94;5076756;27;65141;-81
2022/11/20 01:10:12;;;;;;;;;8.25;5.00;;;;;8.29;70.26;101202.31;5077371;27;45318;-82
2022/11/20 01:12:38;;;;;;;;;6.00;6.00;;;;;8.22;69.97;101203.25;5076645;28;57347;-82
2022/11/20 01:15:03;;;;;;;;;11.50;8.00;;;;;8.18;70.26;101203.31;5076139;28;67450;-81
2022/11/20 01:17:31;;;;;;;;;4.25;4.25;;;;;8.12;69.70;101204.25;5077529;28;45337;-82
2022/11/20 01:19:56;;;;;;;;;8.25;6.50;;;;;8.07;70.41;101203.44;5058989;28;45764;-82
2022/11/20 01:22:21;;;;;;;;;5.00;4.00;;;;;8.03;70.23;101206.94;5076404;28;67420;-82
2022/11/20 01:24:47;;;;;;;;;10.00;6.00;;;;;7.96;69.86;101203.53;5076679;28;60350;-82
2022/11/20 01:27:12;;;;;;;;;7.00;4.25;;;;;7.92;70.05;101200.13;5077608;28;45396;-82
2022/11/20 01:29:37;;;;;;;;;4.75;4.75;;;;;7.89;70.25;101199.28;5057870;27;62337;-82
2022/11/20 01:32:03;;;;;;;;;12.75;5.75;;;;;7.86;70.23;101197.59;5076034;28;69351;-82
2022/11/20 01:34:28;;;;;;;;;5.00;5.00;;;;;7.83;70.31;101200.22;5077192;27;46020;-82
2022/11/20 01:36:53;;;;;;;;;5.25;5.00;;;;;7.81;70.39;101196.78;5058988;28;45372;-82
2022/11/20 01:39:24;;;;;;;;;6.00;3.50;;;;;7.78;70.14;101191.63;5057939;28;46258;-81
2022/11/20 01:44:54;;;;;;;;;8.75;6.00;;;;;7.75;70.59;101192.53;5075904;27;45438;-82
2022/11/20 01:47:25;;;;;;;;;4.00;3.50;;;;;7.73;70.32;101191.69;5064031;28;45396;-81
2022/11/20 01:49:56;;;;;;;;;7.00;4.00;;;;;7.71;70.53;101190.00;5038697;28;45439;-81
2022/11/20 01:52:26;;;;;;;;;5.25;5.00;;;;;7.67;70.30;101188.28;5038621;28;45372;-82
2022/11/20 01:54:57;;;;;;;;;4.00;4.00;;;;;7.64;70.46;101186.59;5055444;28;45448;-82
2022/11/20 01:57:25;;;;;;;;;5.50;3.00;;;;;7.63;70.56;101194.38;5056671;28;45391;-82
2022/11/20 01:59:54;;;;;;;;;2.00;2.00;;;;;7.64;70.54;101193.50;5055160;28;68861;-82
2022/11/20 02:02:21;;;;;;;;;7.25;3.00;;;;;7.65;70.49;101192.63;5056489;28;45305;-82
2022/11/20 02:04:47;;;;;;;;;8.00;5.50;;;;;7.65;70.41;101190.91;5054989;28;45348;-82
2022/11/20 02:07:13;;;;;;;;;5.00;3.00;;;;;7.65;70.47;101190.91;5055322;28;45348;-82
2022/11/20 02:09:38;;;;;;;;;4.50;4.50;;;;;7.63;70.57;101177.09;5055565;28;65426;-82
2022/11/20 02:12:04;;;;;;;;;3.50;2.00;;;;;7.63;70.47;101179.69;5056363;28;45348;-82
2022/11/20 02:14:29;;;;;;;;;4.50;4.00;;;;;7.63;70.48;101179.69;5054757;28;45504;-81
2022/11/20 02:16:55;;;;;;;;;4.00;4.00;;;;;7.64;70.78;101184.00;5054197;28;64457;-81
2022/11/20 02:19:30;;;;;;;;;5.00;4.25;;;;;7.69;70.85;101182.22;5054812;28;46490;-82
2022/11/20 02:22:13;;;;;;;;;4.25;2.50;;;;;7.69;70.33;101181.34;5054573;28;45407;-82
2022/11/20 02:24:39;;;;;;;;;4.50;2.50;;;;;7.69;70.80;101173.56;5055056;28;45368;-82
2022/11/20 02:27:09;;;;;;;;;6.00;2.00;;;;;7.72;70.62;101178.72;5054475;28;45626;-82
2022/11/20 02:29:40;;;;;;;;;1.00;1.00;;;;;7.72;70.25;101170.97;5054659;28;46550;-82
2022/11/20 02:32:06;;;;;;;;;2.00;2.00;;;;;7.72;70.12;101174.41;5054785;28;45883;-82
2022/11/20 02:34:31;;;;;;;;;5.00;2.00;;;;;7.71;70.37;101164.94;5057257;28;62959;-82
2022/11/20 02:36:57;;;;;;;;;2.50;2.50;;;;;7.72;70.30;101158.00;5074081;27;57914;-82
2022/11/20 02:39:24;;;;;;;;;2.00;1.75;;;;;7.70;70.31;101160.59;5091816;27;45712;-82
2022/11/20 02:41:53;;;;;;;;;2.00;2.00;;;;;7.67;70.12;101158.06;5094985;27;45462;-82
2022/11/20 02:44:18;;;;;;;;;5.25;5.00;;;;;7.66;70.41;101158.06;5078420;27;45508;-82
2022/11/20 02:46:43;;;;;;;;;5.75;2.00;;;;;7.65;70.17;101151.16;5096161;27;51374;-82
2022/11/20 02:49:08;;;;;;;;;3.50;2.00;;;;;7.66;70.29;101145.13;5095325;27;73297;-82
2022/11/20 02:51:34;;;;;;;;;8.00;2.50;;;;;7.66;70.36;101138.19;5076519;27;60680;-82
2022/11/20 02:53:59;;;;;;;;;5.00;2.00;;;;;7.64;70.26;101126.16;5095801;27;53009;-82
2022/11/20 02:56:25;;;;;;;;;5.25;4.25;;;;;7.63;70.47;101124.41;5077825;27;45382;-82
2022/11/20 02:58:50;;;;;;;;;1.25;1.00;;;;;7.60;70.12;101116.69;5096288;27;46015;-81
2022/11/20 03:01:16;;;;;;;;;2.00;1.00;;;;;7.58;70.30;101116.72;5096384;27;45361;-82
2022/11/20 03:03:41;;;;;;;;;4.50;2.00;;;;;7.57;70.07;101114.97;5096479;27;45339;-82
2022/11/20 03:06:07;;;;;;;;;1.25;1.25;;;;;7.59;70.15;101115.81;5095808;27;55746;-81
2022/11/20 03:08:32;;;;;;;;;1.75;1.75;;;;;7.62;70.52;101113.19;5096043;27;46208;-82
2022/11/20 03:11:02;;;;;;;;;1.25;1.00;;;;;7.64;70.66;101103.69;5094864;27;66040;-82
2022/11/20 03:13:27;;;;;;;;;2.00;2.00;;;;;7.63;70.43;101099.34;5078172;27;45378;-82
2022/11/20 03:15:53;;;;;;;;;1.00;1.00;;;;;7.61;70.42;101102.84;5095305;27;69270;-82
2022/11/20 03:18:18;;;;;;;;;3.00;2.00;;;;;7.56;70.48;101098.59;5095414;27;63870;-82
2022/11/20 03:20:43;;;;;;;;;4.25;3.00;;;;;7.52;70.47;101098.63;5094959;27;70790;-81
2022/11/20 03:23:09;;;;;;;;;4.75;1.00;;;;;7.49;70.45;101090.91;5095999;27;45453;-82
2022/11/20 03:25:34;;;;;;;;;4.50;2.00;;;;;7.47;70.57;101087.47;5094845;27;68331;-82
2022/11/20 03:27:59;;;;;;;;;3.00;0.00;;;;;7.43;70.71;101091.81;5095039;27;66949;-82
2022/11/20 03:30:24;;;;;;;;;2.00;2.00;;;;;7.39;70.30;101084.94;5094730;27;69406;-82
2022/11/20 03:32:53;;;;;;;;;5.00;3.50;;;;;7.34;70.61;101079.81;5095055;27;65490;-82
2022/11/20 03:35:18;;;;;;;;;8.75;5.00;;;;;7.30;70.96;101085.91;5096050;27;45399;-82
2022/11/20 03:37:45;;;;;;;;;4.50;1.75;;;;;7.27;70.84;101088.50;5094743;27;60496;-81
2022/11/20 03:40:11;;;;;;;;;1.25;1.00;;;;;7.27;70.75;101082.47;5093319;27;45332;-81
2022/11/20 03:42:45;;;;;;;;;4.50;1.00;;;;;7.24;70.97;101079.91;5095856;27;45404;-81
2022/11/20 03:45:10;;;;;;;;;2.00;2.00;;;;;7.22;71.30;101073.91;5095714;27;45394;-82
2022/11/20 03:47:36;;;;;;;;;1.50;1.00;;;;;7.23;71.25;101073.88;5095768;27;46114;-82
2022/11/20 03:50:01;;;;;;;;;1.00;1.00;;;;;7.25;71.12;101072.13;5077303;27;45334;-82
2022/11/20 03:52:26;;;;;;;;;1.00;1.00;;;;;7.26;71.44;101062.63;5077473;27;45339;-81
2022/11/20 03:54:52;;;;;;;;;1.00;1.00;;;;;7.27;71.36;101066.94;5095186;27;48879;-82
2022/11/20 03:57:17;;;;;;;;;2.00;2.00;;;;;7.29;71.09;101067.78;5095679;27;45341;-82
2022/11/20 03:59:43;;;;;;;;;0.25;0.25;;;;;7.30;71.67;101074.66;5095153;27;57990;-81
2022/11/20 04:02:08;;;;;;;;;1.50;1.50;;;;;7.32;71.48;101071.22;5096396;27;61787;-81
2022/11/20 04:04:33;;;;;;;;;5.25;1.00;;;;;7.38;71.77;101074.63;5098444;27;63561;-82
2022/11/20 04:06:59;;;;;;;;;1.75;1.75;;;;;7.42;72.26;101071.09;5098150;27;62674;-82
2022/11/20 04:09:24;;;;;;;;;4.50;1.00;;;;;7.46;72.21;101073.63;5097739;27;67958;-82
2022/11/20 04:11:49;;;;;;;;;4.50;1.50;;;;;7.51;71.53;101068.41;5098502;27;57730;-82
2022/11/20 04:14:15;;;;;;;;;2.25;1.25;;;;;7.56;72.25;101067.50;5098090;27;61753;-81
2022/11/20 04:16:41;;;;;;;;;1.25;1.00;;;;;7.64;72.24;101071.75;5098601;27;46555;-82
2022/11/20 04:19:10;;;;;;;;;5.25;2.00;;;;;7.67;71.53;101064.78;5098438;27;45402;-82
2022/11/20 04:21:35;;;;;;;;;2.00;2.00;;;;;7.68;71.64;101065.63;5098913;27;45383;-82
2022/11/20 04:24:01;;;;;;;;;2.00;2.00;;;;;7.68;71.90;101058.72;5098150;27;57574;-82
2022/11/20 04:26:27;;;;;;;;;2.00;2.00;;;;;7.70;71.63;101059.53;5098513;27;45280;-82
2022/11/20 04:28:53;;;;;;;;;6.75;3.00;;;;;7.70;71.19;101056.97;5098608;27;45454;-82
2022/11/20 04:31:21;;;;;;;;;4.00;1.75;;;;;7.70;71.05;101062.13;5097806;27;66994;-82
2022/11/20 04:33:47;;;;;;;;;5.00;1.00;;;;;7.71;71.39;101060.44;5080417;27;45417;-81
2022/11/20 04:36:18;;;;;;;;;4.00;4.00;;;;;7.73;71.13;101063.84;5098443;27;45500;-81
2022/11/20 04:38:44;;;;;;;;;5.75;3.50;;;;;7.73;71.43;101056.09;5076198;28;45439;-81
2022/11/20 04:41:16;;;;;;;;;4.00;1.75;;;;;7.72;70.82;101062.13;5075827;28;45477;-81
2022/11/20 04:43:41;;;;;;;;;2.00;2.00;;;;;7.71;71.38;101058.69;5059897;28;45358;-82
2022/11/20 04:46:06;;;;;;;;;5.00;3.50;;;;;7.70;70.83;101048.34;5077217;27;71210;-82
2022/11/20 04:48:32;;;;;;;;;2.50;2.50;;;;;7.69;70.83;101051.78;5075629;28;69872;-81
2022/11/20 04:50:57;;;;;;;;;3.75;2.00;;;;;7.69;70.96;101054.38;5077272;28;57947;-82
2022/11/20 04:53:23;;;;;;;;;5.25;1.75;;;;;7.70;71.25;101048.34;5075646;27;60612;-82
2022/11/20 04:55:49;;;;;;;;;1.00;1.00;;;;;7.72;71.63;101044.00;5076749;27;45672;-81
2022/11/20 04:58:15;;;;;;;;;0.75;0.75;;;;;7.72;71.30;101042.25;5076575;27;45641;-82
2022/11/20 05:00:40;;;;;;;;;2.50;0.50;;;;;7.73;71.43;101043.97;5077744;27;45461;-82
2022/11/20 05:03:06;;;;;;;;;5.50;2.00;;;;;7.70;71.01;101036.22;5077257;27;59313;-82
2022/11/20 05:05:33;;;;;;;;;1.00;1.00;;;;;7.68;70.79;101031.94;5076287;28;48509;-82
2022/11/20 05:07:59;;;;;;;;;1.00;1.00;;;;;7.68;71.12;101037.97;5077402;27;45793;-82
2022/11/20 05:10:25;;;;;;;;;4.00;1.00;;;;;7.70;70.98;101032.78;5077427;28;45553;-81
2022/11/20 05:12:51;;;;;;;;;1.00;1.00;;;;;7.72;71.06;101036.22;5075753;28;45325;-82
2022/11/20 05:15:16;;;;;;;;;2.00;1.00;;;;;7.75;70.68;101037.03;5076477;27;73580;-82
2022/11/20 05:17:49;;;;;;;;;1.25;1.00;;;;;7.76;70.60;101022.34;5077733;28;45374;-82
2022/11/20 05:20:15;;;;;;;;;2.00;1.25;;;;;7.81;70.50;101030.91;5077409;27;45369;-82
2022/11/20 05:22:40;;;;;;;;;2.00;1.00;;;;;7.81;70.37;101030.91;5077019;27;45441;-82
2022/11/20 05:25:06;;;;;;;;;0.75;0.75;;;;;7.82;70.30;101024.88;5075417;28;68445;-82
2022/11/20 05:27:31;;;;;;;;;2.00;1.00;;;;;7.85;70.50;101031.75;5075960;28;45325;-82
2022/11/20 05:29:57;;;;;;;;;2.00;1.00;;;;;7.85;70.36;101026.56;5076739;27;59623;-81
2022/11/20 05:32:25;;;;;;;;;2.00;0.50;;;;;7.86;70.46;101030.88;5076046;28;45232;-81
2022/11/20 05:34:50;;;;;;;;;2.00;0.25;;;;;7.86;70.27;101026.53;5077050;27;46312;-82
2022/11/20 05:37:16;;;;;;;;;1.00;1.00;;;;;7.86;70.14;101023.94;5076946;27;45493;-82
2022/11/20 05:39:41;;;;;;;;;0.75;0.75;;;;;7.87;70.01;101014.44;5092889;27;59118;-81
2022/11/20 05:44:50;;;;;;;;;1.00;1.00;;;;;7.86;69.72;101020.50;5097295;27;45370;-82
2022/11/20 05:47:15;;;;;;;;;1.00;0.00;;;;;7.85;69.34;101019.63;5096849;27;64631;-82
2022/11/20 05:49:41;;;;;;;;;1.00;1.00;;;;;7.86;69.49;101010.13;5096803;27;60862;-82
2022/11/20 05:52:06;;;;;;;;;1.00;1.00;;;;;7.86;69.92;101020.50;5096251;27;69251;-82
2022/11/20 05:54:32;;;;;;;;;1.50;1.00;;;;;7.87;70.17;101007.50;5078110;27;65259;-81
2022/11/20 05:56:57;;;;;;;;;5.00;2.00;;;;;7.85;69.71;101003.22;5097499;27;45382;-82
2022/11/20 05:59:22;;;;;;;;;1.00;1.00;;;;;7.85;69.71;101008.41;5096565;27;65464;-81
2022/11/20 06:01:47;;;;;;;;;2.50;2.50;;;;;7.82;70.17;101006.72;5096460;27;57332;-82
2022/11/20 06:04:13;;;;;;;;;4.00;1.75;;;;;7.85;70.20;101003.22;5096201;27;75373;-81
2022/11/20 06:06:38;;;;;;;;;4.75;2.00;;;;;7.85;70.21;100998.91;5095850;27;70785;-81
2022/11/20 06:09:04;;;;;;;;;8.75;3.50;;;;;7.81;69.86;100997.22;5097261;27;45237;-82
2022/11/20 06:11:29;;;;;;;;;0.50;0.50;;;;;7.82;69.63;100996.38;5097427;27;45301;-82
2022/11/20 06:13:54;;;;;;;;;1.00;1.00;;;;;7.85;69.58;100990.28;5096141;27;68837;-82
2022/11/20 06:16:20;;;;;;;;;1.75;0.50;;;;;7.90;69.87;100991.06;5096707;27;48298;-82
2022/11/20 06:18:46;;;;;;;;;2.50;1.00;;;;;7.93;69.89;101004.84;5078539;27;45324;-82
2022/11/20 06:21:16;;;;;;;;;2.75;1.00;;;;;7.99;70.43;100995.28;5096455;27;45360;-81
2022/11/20 06:23:42;;;;;;;;;0.25;0.25;;;;;8.05;70.63;100990.00;5078607;27;45739;-81
2022/11/20 06:26:10;;;;;;;;;2.00;1.00;;;;;8.03;70.02;100984.84;5078667;27;45467;-82
2022/11/20 06:28:35;;;;;;;;;1.00;1.00;;;;;8.00;69.48;100986.59;5096883;27;45279;-81
2022/11/20 06:31:01;;;;;;;;;1.75;1.00;;;;;7.97;69.68;100984.94;5096740;27;45350;-82
2022/11/20 06:33:27;;;;;;;;;0.75;0.00;;;;;7.95;69.43;100989.28;5078045;27;47440;-82
2022/11/20 06:35:52;;;;;;;;;0.75;0.75;;;;;7.93;68.84;100988.41;5077081;27;71345;-82
2022/11/20 06:38:17;;;;;;;;;2.50;2.00;;;;;7.91;69.32;100995.34;5077459;27;58396;-81
2022/11/20 06:40:43;;;;;;;;;1.50;1.00;;;;;7.95;69.72;100986.69;5094914;27;59338;-82
2022/11/20 06:43:09;;;;;;;;;1.00;1.00;;;;;8.01;69.93;100989.19;5078178;27;47440;-81
2022/11/20 06:45:35;;;;;;;;;0.50;0.50;;;;;8.02;69.07;100983.09;5096581;27;45361;-82
2022/11/20 06:48:00;;;;;;;;;2.00;1.00;;;;;8.04;69.18;100980.50;5077953;27;45445;-81
2022/11/20 06:50:26;;;;;;;;;1.00;0.00;;;;;8.03;68.41;100986.56;5078259;27;45442;-82
2022/11/20 06:52:51;;;;;;;;;0.00;0.00;;;;;8.02;68.30;100988.28;5095387;27;67941;-81
2022/11/20 06:55:16;;;;;;;;;1.00;1.00;;;;;8.06;68.03;100989.97;5078151;27;45363;-82
2022/11/20 06:57:42;;;;;;;;;2.00;0.25;;;;;8.11;68.21;100990.75;5077190;27;63064;-81
2022/11/20 07:00:08;;;;;;;;;1.00;1.00;;;;;8.13;68.53;100993.31;5096050;27;56249;-81
2022/11/20 07:02:33;;;;;;;;;1.00;1.00;;;;;8.15;68.05;100996.75;5077508;27;46302;-81
2022/11/20 07:04:58;;;;;;;;;0.00;0.00;;;;;8.19;68.20;101002.75;5095439;27;69808;-81
2022/11/20 07:07:24;;;;;;;;;3.50;1.00;;;;;8.19;67.81;101005.34;5096807;27;45280;-82
2022/11/20 07:09:49;;;;;;;;;1.00;1.00;;;;;8.19;67.47;101001.03;5095484;27;56356;-82
2022/11/20 07:12:14;;;;;;;;;1.00;0.00;;;;;8.19;67.30;100997.56;5077713;27;53201;-82
2022/11/20 07:14:40;;;;;;;;;2.00;1.00;;;;;8.20;67.56;100994.09;5095510;27;57937;-82
2022/11/20 07:17:05;;;;;;;;;1.25;1.25;;;;;8.19;67.65;100992.38;5095494;27;52262;-82
2022/11/20 07:19:30;;;;;;;;;1.75;1.00;;;;;8.23;67.54;101001.84;5078013;27;45552;-82
2022/11/20 07:21:56;;;;;;;;;5.00;2.00;;;;;8.22;67.51;100993.19;5095252;27;66954;-82
2022/11/20 07:24:21;;;;;;;;;3.00;1.50;;;;;8.22;67.24;100995.78;5095982;27;45814;-82
2022/11/20 07:26:48;;;;;;;;;2.00;1.00;;;;;8.22;66.95;100990.59;5095800;27;47282;-81
2022/11/20 07:29:14;;;;;;;;;1.25;1.25;;;;;8.21;66.62;100999.28;5094808;27;45657;-82
2022/11/20 07:31:39;;;;;;;;;5.00;1.00;;;;;8.18;66.92;100996.72;5077163;27;47315;-82
2022/11/20 07:34:05;;;;;;;;;1.25;1.00;;;;;8.19;66.95;101008.81;5095100;27;68909;-82
2022/11/20 07:36:30;;;;;;;;;1.00;1.00;;;;;8.22;66.68;101005.31;5061582;27;45407;-82
2022/11/20 07:38:55;;;;;;;;;2.50;2.00;;;;;8.25;66.54;101007.88;5099253;27;45441;-82
2022/11/20 07:41:21;;;;;;;;;2.00;0.00;;;;;8.25;65.96;101011.31;5096374;27;71364;-82
2022/11/20 07:43:46;;;;;;;;;1.25;0.75;;;;;8.23;65.94;101005.28;5098620;27;54946;-82
2022/11/20 07:46:11;;;;;;;;;2.00;0.75;;;;;8.29;66.74;101012.13;5098463;27;59223;-82
2022/11/20 07:48:36;;;;;;;;;4.75;1.00;;;;;8.36;66.43;101011.16;5098764;27;56524;-82
2022/11/20 07:51:02;;;;;;;;;9.75;2.00;;;;;8.41;66.18;101011.91;5098608;27;62476;-82
2022/11/20 07:53:27;;;;;;;;;4.00;1.00;;;;;8.41;65.71;101011.06;5099356;27;45529;-82
2022/11/20 07:55:53;;;;;;;;;3.00;1.00;;;;;8.41;65.61;101011.06;5098598;27;56398;-81
2022/11/20 07:58:19;;;;;;;;;2.00;2.00;;;;;8.44;65.50;101009.31;5099383;27;45491;-82
2022/11/20 08:00:45;;;;;;;;;2.00;1.75;;;;;8.44;65.57;101003.28;5080251;27;46976;-82
2022/11/20 08:03:10;;;;;;;;;2.00;1.00;;;;;8.46;65.62;101002.34;5080951;27;45420;-81
2022/11/20 08:05:37;;;;;;;;;4.50;2.00;;;;;8.46;65.70;100999.75;5098374;27;60668;-81
2022/11/20 08:08:02;;;;;;;;;0.00;0.00;;;;;8.50;65.33;100997.97;5099161;27;45229;-82
2022/11/20 08:10:27;;;;;;;;;1.75;1.75;;;;;8.51;65.81;101013.53;5080581;27;47228;-82
2022/11/20 08:15:38;;;;;;;;;2.50;2.00;;;;;8.52;65.61;100996.22;5098738;27;45330;-81
2022/11/20 08:18:06;;;;;;;;;2.75;2.00;;;;;8.53;66.04;100998.78;5080572;27;45396;-82
2022/11/20 08:20:32;;;;;;;;;7.50;1.75;;;;;8.56;66.13;100992.69;5098497;27;45353;-81
2022/11/20 08:23:02;;;;;;;;;4.00;2.00;;;;;8.56;66.26;100986.63;5098804;27;45313;-83
2022/11/20 08:25:29;;;;;;;;;2.00;2.00;;;;;8.56;66.38;100984.91;5080737;27;45316;-82
2022/11/20 08:27:57;;;;;;;;;1.00;1.00;;;;;8.62;66.74;100981.38;5080601;27;45570;-82
2022/11/20 08:30:22;;;;;;;;;4.00;2.00;;;;;8.65;66.88;100981.31;5080003;27;45447;-83
2022/11/20 08:32:48;;;;;;;;;0.75;0.75;;;;;8.67;67.47;100970.03;5097916;27;57376;-82
2022/11/20 08:35:13;;;;;;;;;1.25;1.25;;;;;8.69;67.59;100969.97;5098638;27;45337;-82
2022/11/20 08:37:41;;;;;;;;;2.00;0.75;;;;;8.73;67.48;100966.47;5098605;27;45340;-83
2022/11/20 08:40:10;;;;;;;;;0.50;0.50;;;;;8.76;67.35;100960.34;5096864;27;45318;-83
2022/11/20 08:42:35;;;;;;;;;1.00;1.00;;;;;8.74;67.80;100969.91;5098405;27;45323;-82
2022/11/20 08:45:01;;;;;;;;;2.75;1.00;;;;;8.69;68.14;100967.38;5097421;27;59588;-83
2022/11/20 08:47:26;;;;;;;;;4.25;1.75;;;;;8.65;68.20;100956.19;5097337;27;56396;-83
2022/11/20 08:49:51;;;;;;;;;2.00;1.00;;;;;8.67;67.99;100962.25;5096702;27;74540;-83
2022/11/20 08:52:17;;;;;;;;;6.00;2.00;;;;;8.67;68.59;100954.47;5097285;27;63485;-82
2022/11/20 08:54:42;;;;;;;;;3.50;3.25;;;;;8.69;69.15;100950.09;5080179;27;45341;-83
2022/11/20 08:57:07;;;;;;;;;3.75;0.00;;;;;8.72;68.95;100954.34;5079217;27;64114;-82
2022/11/20 08:59:33;;;;;;;;;5.00;2.00;;;;;8.77;69.21;100949.09;5079391;27;46978;-82
2022/11/20 09:01:58;;;;;;;;;5.50;2.00;;;;;8.81;69.47;100948.16;5097500;27;62725;-82
2022/11/20 09:04:23;;;;;;;;;5.75;2.00;;;;;8.80;69.32;100938.66;5097397;27;64663;-83
2022/11/20 09:06:50;;;;;;;;;6.00;4.75;;;;;8.83;70.34;100938.59;5079872;27;45258;-83
2022/11/20 09:09:17;;;;;;;;;7.25;4.75;;;;;8.85;70.21;100940.28;5079548;27;46330;-82
2022/11/20 09:11:42;;;;;;;;;4.50;2.00;;;;;8.84;70.77;100935.97;5098172;27;45789;-83
2022/11/20 09:14:07;;;;;;;;;9.25;2.50;;;;;8.78;71.26;100937.81;5097623;27;45269;-82
2022/11/20 09:16:33;;;;;;;;;6.00;2.00;;;;;8.76;71.49;100937.00;5079025;27;64906;-82
2022/11/20 09:18:58;;;;;;;;;2.50;2.50;;;;;8.71;71.40;100931.88;5079779;27;46467;-82
2022/11/20 09:21:24;;;;;;;;;14.75;4.00;;;;;8.71;71.46;100935.34;5096804;27;70515;-83
2022/11/20 09:23:49;;;;;;;;;4.00;4.00;;;;;8.69;71.86;100931.03;5079922;27;46049;-82
2022/11/20 09:26:15;;;;;;;;;9.75;7.00;;;;;8.66;71.75;100924.19;5079225;27;50201;-83
2022/11/20 09:28:40;;;;;;;;;5.25;5.25;;;;;8.62;72.39;100924.28;5079067;27;46612;-83
2022/11/20 09:31:07;;;;;;;;;5.50;4.25;;;;;8.66;72.19;100921.59;5079370;27;45366;-83
2022/11/20 09:33:32;;;;;;;;;7.50;5.00;;;;;8.72;72.40;100924.06;5079555;27;45418;-82
2022/11/20 09:35:57;;;;;;;;;10.00;4.75;;;;;8.75;72.49;100909.31;5078727;27;61164;-83
2022/11/20 09:38:23;;;;;;;;;6.25;5.00;;;;;8.72;72.71;100902.47;5096082;27;73486;-82
2022/11/20 09:41:19;;;;;;;;;7.75;6.25;;;;;8.77;72.89;100898.03;5096693;27;45382;-83
2022/11/20 09:44:13;;;;;;;;;5.50;5.50;;;;;8.79;72.59;100908.41;5078793;27;45466;-83
2022/11/20 09:46:54;;;;;;;;;21.50;14.25;;;;;8.77;72.81;100898.03;5062526;27;45490;-83
2022/11/20 09:49:37;;;;;;;;;16.00;10.50;;;;;8.75;73.18;100899.81;5113168;27;45395;-83
2022/11/20 09:52:41;;;;;;;;;5.00;4.25;;;;;8.69;73.21;100900.78;5097480;27;45402;-83
2022/11/20 09:55:09;;;;;;;;;16.75;12.00;;;;;8.71;73.94;100899.00;5096274;27;45611;-83
2022/11/20 09:57:36;;;;;;;;;15.00;9.75;;;;;8.74;73.79;100897.25;5078657;27;45403;-83
2022/11/20 10:00:05;;;;;;;;;8.00;5.25;;;;;8.69;73.51;100892.13;5078507;27;46447;-83
2022/11/20 10:02:52;;;;;;;;;14.50;9.00;;;;;8.67;73.82;100899.97;5097129;27;45263;-83
2022/11/20 10:05:42;;;;;;;;;20.25;15.25;;;;;8.66;74.29;100890.44;5097310;27;45362;-82
2022/11/20 10:08:24;;;;;;;;;21.25;19.00;;;;;8.62;74.84;100888.81;5112893;27;45637;-83
2022/11/20 10:10:53;;;;;;;;;11.75;8.25;;;;;8.61;74.75;100891.41;5097272;27;46596;-83
2022/11/20 10:13:41;;;;;;;;;16.75;9.50;;;;;8.62;75.07;100891.41;5078235;27;45851;-83
2022/11/20 10:16:45;;;;;;;;;12.00;8.50;;;;;8.62;74.59;100875.81;5097027;27;45427;-83
2022/11/20 10:19:39;;;;;;;;;20.25;10.25;;;;;8.65;75.51;100867.97;5096950;27;45379;-83
2022/11/20 10:22:19;;;;;;;;;10.00;8.75;;;;;8.73;76.16;100852.28;5078830;27;45599;-82
2022/11/20 10:24:51;;;;;;;;;16.25;13.00;;;;;8.77;76.42;100859.09;5096815;27;45413;-83
2022/11/20 10:27:34;;;;;;;;;11.00;6.75;;;;;8.85;76.28;100865.00;5096608;27;45337;-83
2022/11/20 10:30:03;;;;;;;;;12.00;8.75;;;;;8.85;76.00;100865.00;5096891;27;45461;-83
2022/11/20 10:32:35;;;;;;;;;5.50;4.75;;;;;8.88;76.49;100861.50;5096854;27;45580;-83
2022/11/20 10:35:08;;;;;;;;;8.00;6.00;;;;;8.90;76.51;100854.53;5078214;27;45392;-83
2022/11/20 10:37:35;;;;;;;;;6.00;6.00;;;;;8.93;76.36;100848.41;5096777;27;45363;-82
2022/11/20 10:40:36;;;;;;;;;6.00;6.00;;;;;8.99;76.52;100851.75;5093884;27;45268;-82
2022/11/20 10:43:08;;;;;;;;;11.75;5.00;;;;;9.06;76.37;100847.28;5078535;27;46566;-83
2022/11/20 10:45:39;;;;;;;;;8.00;5.75;;;;;9.09;76.59;100839.41;5078153;27;45310;-82
2022/11/20 10:48:31;;;;;;;;;7.25;5.75;;;;;9.10;77.15;100842.00;5078577;27;45441;-82
2022/11/20 10:51:22;;;;;;;;;0.00;0.00;;;;;9.10;76.62;100854.09;5064786;28;45469;-83
2022/11/20 10:54:09;;;;;;;;;5.00;5.00;;;;;9.07;76.52;100843.78;5076066;28;45619;-82
2022/11/20 10:56:50;;;;;;;;;3.25;3.25;;;;;9.08;77.11;100843.78;5075418;28;45341;-82
2022/11/20 10:59:35;;;;;;;;;3.75;2.00;;;;;9.11;77.07;100846.28;5074980;28;45388;-82
2022/11/20 11:02:00;;;;;;;;;2.00;1.50;;;;;9.12;77.67;100839.38;5076152;28;45350;-82
2022/11/20 11:04:32;;;;;;;;;6.00;2.00;;;;;9.11;77.48;100833.28;5057674;28;46541;-82
2022/11/20 11:07:09;;;;;;;;;3.50;3.50;;;;;9.12;77.40;100826.38;5058495;27;45464;-82
2022/11/20 11:09:38;;;;;;;;;4.75;4.00;;;;;9.17;78.08;100824.53;5077806;27;45384;-83
2022/11/20 11:12:08;;;;;;;;;2.75;1.50;;;;;9.24;77.90;100817.47;5077331;27;45395;-82
2022/11/20 11:14:51;;;;;;;;;6.25;5.00;;;;;9.29;77.73;100808.69;5077960;27;46685;-82
2022/11/20 11:17:23;;;;;;;;;4.00;2.00;;;;;9.36;77.96;100805.94;5077579;27;45770;-83
2022/11/20 11:20:16;;;;;;;;;5.00;1.50;;;;;9.40;78.54;100812.78;5096346;27;45381;-83
2022/11/20 11:22:46;;;;;;;;;1.00;1.00;;;;;9.37;78.09;100805.06;5078223;27;45573;-82
2022/11/20 11:25:20;;;;;;;;;1.00;1.00;;;;;9.35;78.48;100806.84;5077124;27;46265;-83
2022/11/20 11:27:49;;;;;;;;;2.25;2.00;;;;;9.33;78.13;100806.88;5096071;27;45878;-82
2022/11/20 11:30:17;;;;;;;;;6.00;1.75;;;;;9.34;78.22;100815.50;5078452;27;45286;-83
2022/11/20 11:32:42;;;;;;;;;8.25;2.75;;;;;9.34;78.25;100812.91;5096174;27;45586;-82
2022/11/20 11:35:27;;;;;;;;;6.00;5.75;;;;;9.34;78.69;100810.31;5095898;27;46153;-83
2022/11/20 11:38:10;;;;;;;;;6.75;3.25;;;;;9.36;78.46;100780.81;5095512;27;45421;-83
2022/11/20 11:40:38;;;;;;;;;1.75;1.00;;;;;9.42;78.66;100778.06;5077811;27;45384;-82
2022/11/20 11:46:01;;;;;;;;;2.00;2.00;;;;;9.50;78.54;100785.69;5060021;28;46301;-83
2022/11/20 11:48:26;;;;;;;;;0.75;0.75;;;;;9.50;78.23;100786.53;5056439;28;66912;-82